Latest Weather Observations for Coondewanna

IDW60801

Issued at 3:35 pm WST Friday 1 August 2014 (issued every 30 minutes, with the page automatically refreshed every 10 minutes)

About weather observations | Map of weather stations | Latest weather observations for WA | Other Formats
Station Details ID: 505051 Name: COONDEWANNA Lat: -22.96 Lon: 118.81 Height: 697.63 m
Data from the previous 72 hours. | See also: Recent months for locations in Western Australia
Date/Time
WST
Temp
°C
App
Temp
°C
Dew
Point
Rel
Hum
%
Delta-T
°C
Wind Press
QNH
hPa
Press
MSL
hPa
Rain
since 9 am
mm
Dir
 
Spd
km/h
Gust
km/h
Spd
kts
Gust
kts
01/03:30pm 25.0 20.7 1.2 21 11.6 E 13 20 7 11 1020.0 - 0.6
01/03:00pm 25.2 21.6 0.7 20 11.8 N 9 17 5 9 1020.0 1017.9 0.6
01/02:30pm 24.4 20.8 0.7 21 11.4 E 9 17 5 9 1020.2 - 0.6
01/02:00pm 24.0 19.7 1.0 22 11.1 NE 13 24 7 13 1020.4 1018.3 0.6
01/01:30pm 24.4 20.9 1.3 22 11.2 NNE 9 13 5 7 1020.7 - 0.6
01/01:00pm 23.9 19.5 0.3 21 11.2 E 13 20 7 11 1021.0 1019.0 0.6
01/12:30pm 23.6 19.1 2.4 25 10.5 ENE 15 24 8 13 1021.5 - 0.6
01/12:00pm 23.1 18.7 2.6 26 10.1 ENE 15 22 8 12 1022.2 1020.2 0.6
01/11:30am 22.4 18.1 3.0 28 9.6 ENE 15 24 8 13 1022.6 - 0.6
01/11:00am 21.1 16.4 2.9 30 8.9 NE 17 22 9 12 1023.1 1021.0 0.6
01/10:30am 21.1 16.4 3.3 31 8.7 ENE 17 24 9 13 1023.5 - 0.6
01/10:00am 19.7 14.7 3.4 34 7.9 ESE 19 26 10 14 1023.8 1021.8 0.0
01/09:30am 18.5 13.4 3.2 36 7.4 E 19 24 10 13 1024.0 - 0.0
01/09:00am 17.7 12.4 3.2 38 6.9 E 20 30 11 16 1023.9 1021.9 0.0
01/08:30am 17.0 11.8 3.3 40 6.6 E 20 26 11 14 1023.4 - 0.0
01/08:00am 14.1 12.4 2.0 44 5.5 CALM 0 0 0 0 1023.0 1020.9 0.0
01/07:30am 10.9 9.2 2.0 54 3.9 CALM 0 0 0 0 1022.6 - 0.0
01/07:00am 7.7 5.9 1.1 63 2.8 CALM 0 0 0 0 1022.4 1021.0 0.0
01/06:30am 6.8 4.9 0.5 64 2.6 SSW 0 0 0 0 1022.0 - 0.0
01/06:00am 7.6 5.8 1.0 63 2.8 SSW 0 0 0 0 1021.8 1020.4 0.0
01/05:30am 8.3 6.5 1.2 61 3.0 CALM 0 4 0 2 1021.4 - 0.0
01/05:00am 8.7 6.9 1.4 60 3.1 CALM 0 0 0 0 1021.1 1019.7 0.0
01/04:30am 9.2 7.4 1.4 58 3.4 CALM 0 0 0 0 1020.9 - 0.0
01/04:00am 10.2 7.7 1.3 54 3.8 SSW 4 7 2 4 1020.9 1019.5 0.0
01/03:30am 10.6 8.9 1.7 54 3.9 CALM 0 0 0 0 1021.0 - 0.0
01/03:00am 10.1 8.4 1.7 56 3.7 CALM 0 0 0 0 1020.9 1019.5 0.0
01/02:30am 11.3 9.6 2.1 53 4.1 CALM 0 0 0 0 1021.0 - 0.0
01/02:00am 12.1 9.2 1.7 49 4.6 SSW 6 7 3 4 1021.0 1019.6 0.0
01/01:30am 13.5 11.1 2.1 46 5.2 SSW 4 7 2 4 1021.4 - 0.0
01/01:00am 14.8 12.0 2.0 42 5.8 SSW 6 7 3 4 1021.6 1020.1 0.0
01/12:30am 15.9 13.5 2.0 39 6.4 SW 4 13 2 7 1021.6 - 0.0
01/12:00am 16.9 15.2 1.8 36 7.0 SW 0 0 0 0 1021.6 1020.1 0.0
 
Date/Time
WST
Temp
°C
App
Temp
°C
Dew
Point
Rel
Hum
%
Delta-T
°C
Wind Press
QNH
hPa
Press
MSL
hPa
Rain
since 9 am
mm
Dir
 
Spd
km/h
Gust
km/h
Spd
kts
Gust
kts
31/11:30pm 17.8 15.0 2.2 35 7.4 E 6 7 3 4 1021.9 - 0.0
31/11:00pm 18.9 15.4 1.4 31 8.2 E 9 11 5 6 1021.8 1020.4 0.0
31/10:30pm 19.1 15.3 1.6 31 8.2 E 11 13 6 7 1021.8 - 0.0
31/10:00pm 18.1 16.0 2.0 34 7.5 ESE 2 6 1 3 1021.8 1020.4 0.0
31/09:30pm 18.7 17.0 1.7 32 8.0 CALM 0 0 0 0 1021.7 - 0.0
31/09:00pm 19.7 16.3 1.7 30 8.5 ESE 9 11 5 6 1021.7 1020.3 0.0
31/08:30pm 20.1 17.0 1.5 29 8.8 SSE 7 9 4 5 1021.6 - 0.0
31/08:00pm 20.7 17.3 1.6 28 9.1 SSE 9 11 5 6 1021.5 1020.0 0.0
31/07:30pm 21.2 17.7 1.5 27 9.4 S 9 11 5 6 1021.3 - 0.0
31/07:00pm 21.5 18.0 1.2 26 9.6 S 9 9 5 5 1021.0 1019.6 0.0
31/06:30pm 22.1 18.6 1.2 25 10.0 S 9 11 5 6 1020.7 - 0.0
31/06:00pm 22.9 18.9 0.7 23 10.5 SSE 11 13 6 7 1020.6 1019.2 0.0
31/05:30pm 23.6 20.0 0.7 22 10.9 SSE 9 11 5 6 1020.4 - 0.0
31/05:00pm 24.3 20.3 0.6 21 11.3 S 11 17 6 9 1020.4 1019.0 0.0
31/04:30pm 24.5 21.2 0.1 20 11.6 S 7 11 4 6 1020.3 - 0.0
31/04:00pm 24.6 20.6 0.2 20 11.6 S 11 19 6 10 1020.1 1018.6 0.0
31/03:30pm 24.8 22.1 0.3 20 11.7 S 4 15 2 8 1020.1 - 0.0
31/03:00pm 24.9 20.9 0.4 20 11.7 ESE 11 17 6 9 1020.2 1018.7 0.0
31/02:30pm 25.5 21.6 0.9 20 12.0 SSE 11 20 6 11 1020.4 - 0.0
31/02:00pm 25.1 21.1 0.6 20 11.8 SW 11 24 6 13 1020.6 1019.2 0.0
31/01:30pm 24.4 20.9 1.3 22 11.2 WSW 9 15 5 8 1020.9 - 0.0
31/01:00pm 24.5 21.0 1.4 22 11.2 ESE 9 19 5 10 1021.3 1019.8 0.0
31/12:30pm 23.8 20.2 0.8 22 11.0 SE 9 20 5 11 1021.9 - 0.0
31/12:00pm 23.9 19.2 0.9 22 11.0 E 15 26 8 14 1022.4 1021.0 0.0
31/11:30am 22.7 17.7 1.1 24 10.3 ESE 17 24 9 13 1023.1 - 0.0
31/11:00am 22.3 17.3 1.3 25 10.0 SE 17 22 9 12 1023.3 1021.9 0.0
31/10:30am 21.7 16.7 1.4 26 9.7 ESE 17 22 9 12 1023.6 - 0.0
31/10:00am 21.2 15.2 1.0 26 9.5 ESE 22 30 12 16 1023.7 1022.3 0.0
31/09:30am 20.2 15.2 1.6 29 8.8 E 17 24 9 13 1023.9 - 0.0
31/09:00am 19.2 14.2 1.2 30 8.4 E 17 24 9 13 1023.8 1022.4 0.0
31/08:30am 18.4 12.7 0.5 30 8.2 E 20 26 11 14 1023.7 - 0.0
31/08:00am 18.2 14.6 0.8 31 8.0 N 9 13 5 7 1023.4 1022.0 0.0
31/07:30am 15.6 11.2 0.2 35 6.8 N 13 15 7 8 1023.3 - 0.0
31/07:00am 17.1 11.4 0.3 32 7.5 SE 20 28 11 15 1023.0 1021.6 0.0
31/06:30am 14.6 10.7 1.2 40 6.0 S 11 22 6 12 1022.6 - 0.0
31/06:24am 14.8 11.0 2.0 42 5.9 SSE 11 22 6 12 1022.5 - 0.0
31/06:00am 9.8 7.3 1.5 56 3.6 NNW 4 6 2 3 1022.0 1020.6 0.0
31/05:30am 10.5 7.6 1.3 53 4.0 NNW 6 9 3 5 1021.8 - 0.0
31/05:00am 10.5 7.4 1.3 53 4.0 NW 7 9 4 5 1021.6 1020.1 0.0
31/04:30am 10.3 8.6 1.7 55 3.8 CALM 0 9 0 5 1021.6 - 0.0
31/04:00am 11.3 8.4 1.5 51 4.3 NW 6 11 3 6 1021.6 1020.1 0.0
31/03:30am 9.2 6.4 1.9 60 3.2 NE 6 11 3 6 1021.4 - 0.0
31/03:00am 9.8 7.0 2.2 59 3.3 E 6 11 3 6 1021.4 1019.9 0.0
31/02:30am 9.5 6.5 1.9 59 3.3 WSW 7 7 4 4 1021.4 - 0.0
31/02:00am 9.8 8.2 2.2 59 3.3 CALM 0 0 0 0 1021.3 1019.8 0.0
31/01:30am 9.8 7.4 1.9 58 3.5 WSW 4 7 2 4 1021.6 - 0.0
31/01:00am 11.4 8.4 2.2 53 4.1 SSW 7 9 4 5 1021.7 1020.3 0.0
31/12:30am 10.9 8.1 2.0 54 3.9 E 6 7 3 4 1021.7 - 0.0
31/12:00am 13.5 10.6 2.7 48 5.0 ENE 7 11 4 6 1021.7 1020.3 0.0
 
Date/Time
WST
Temp
°C
App
Temp
°C
Dew
Point
Rel
Hum
%
Delta-T
°C
Wind Press
QNH
hPa
Press
MSL
hPa
Rain
since 9 am
mm
Dir
 
Spd
km/h
Gust
km/h
Spd
kts
Gust
kts
30/11:30pm 12.2 10.5 2.1 50 4.5 CALM 0 0 0 0 1021.8 - 0.0
30/11:00pm 14.5 11.6 2.4 44 5.6 E 7 9 4 5 1021.9 1020.5 0.0
30/10:30pm 13.5 11.8 2.1 46 5.2 CALM 0 2 0 1 1021.9 - 0.0
30/10:00pm 14.7 12.7 2.3 43 5.7 SW 2 7 1 4 1021.9 1020.5 0.0
30/09:30pm 15.5 13.1 2.0 40 6.2 SW 4 7 2 4 1021.9 - 0.0
30/09:00pm 16.6 12.8 1.5 36 6.9 SW 11 11 6 6 1021.8 1020.4 0.0
30/08:30pm 18.0 14.3 2.3 35 7.4 SE 11 13 6 7 1021.6 - 0.0
30/08:00pm 17.6 14.7 2.4 36 7.2 E 7 9 4 5 1021.3 1019.8 0.0
30/07:30pm 18.6 15.9 2.4 34 7.7 NW 6 7 3 4 1021.1 - 0.0
30/07:00pm 18.7 17.0 2.1 33 7.8 CALM 0 2 0 1 1020.9 1019.5 0.0
30/06:30pm 20.6 17.8 2.0 29 8.9 NW 6 7 3 4 1020.7 - 0.0
30/06:00pm 22.5 20.5 2.1 26 9.9 NW 2 7 1 4 1020.4 1019.0 0.0
30/05:30pm 25.1 22.9 1.3 21 11.6 NW 2 7 1 4 1020.3 - 0.0
30/05:00pm 26.1 23.0 1.4 20 12.1 WNW 7 11 4 6 1020.2 1018.7 0.0
30/04:30pm 26.4 23.4 0.9 19 12.5 NNW 6 7 3 4 1020.1 - 0.0
30/04:00pm 25.9 22.3 0.5 19 12.3 N 9 15 5 8 1020.1 1018.6 0.0
30/03:30pm 26.1 23.0 1.4 20 12.2 SSE 7 13 4 7 1020.2 - 0.0
30/03:00pm 25.8 22.3 1.2 20 12.0 W 9 17 5 9 1020.4 1019.0 0.0
30/02:30pm 25.8 20.8 1.2 20 12.1 NNW 17 26 9 14 1020.6 - 0.0
30/02:00pm 24.7 20.8 0.9 21 11.5 W 11 20 6 11 1020.9 1019.5 0.0
30/01:30pm 25.3 21.4 1.4 21 11.7 W 11 17 6 9 1021.1 - 0.0
30/01:00pm 25.1 21.2 1.3 21 11.6 NW 11 20 6 11 1021.6 1020.1 0.0
30/12:30pm 24.9 21.5 1.7 22 11.4 WSW 9 19 5 10 1022.0 - 0.0
30/12:00pm 24.9 21.1 1.7 22 11.4 ENE 11 19 6 10 1022.4 1021.0 0.0
30/11:30am 24.0 19.4 1.6 23 10.9 NE 15 20 8 11 1023.1 - 0.0
30/11:00am 23.8 19.7 2.0 24 10.7 ENE 13 22 7 12 1023.4 1022.0 0.0
30/10:30am 22.9 18.4 2.4 26 10.1 ENE 15 20 8 11 1023.9 - 0.0
30/10:00am 21.5 16.6 1.7 27 9.5 ENE 17 24 9 13 1024.1 1022.8 0.0
30/09:30am 20.7 15.4 1.6 28 9.1 ENE 19 26 10 14 1024.4 - 0.0
30/09:00am 19.7 15.6 2.1 31 8.4 ENE 13 19 7 10 1024.2 1022.9 0.0
30/08:55am 19.3 16.3 2.2 32 8.2 ENE 7 15 4 8 1024.2 - 0.0
30/08:30am 14.2 12.8 3.4 48 5.1 CALM 0 0 0 0 1024.2 - 0.0
30/08:00am 11.2 9.6 2.2 54 4.0 CALM 0 0 0 0 1024.1 1022.8 0.0
30/07:30am 9.1 7.1 2.2 62 3.0 N 2 6 1 3 1023.8 - 0.0
30/07:00am 6.3 3.8 1.4 71 2.0 N 4 7 2 4 1023.5 1022.1 0.0
30/06:30am 6.1 4.3 1.2 71 2.0 CALM 0 0 0 0 1023.3 - 0.0
30/06:00am 6.0 4.2 1.3 72 1.9 CALM 0 0 0 0 1023.0 1021.6 0.0
30/05:30am 6.4 4.7 1.7 72 2.0 CALM 0 0 0 0 1022.6 - 0.0
30/05:00am 6.9 5.2 1.6 69 2.2 CALM 0 0 0 0 1022.3 1020.9 0.0
30/04:30am 7.2 5.4 1.5 67 2.4 CALM 0 0 0 0 1022.2 - 0.0
30/04:00am 7.5 5.8 1.6 66 2.5 CALM 0 0 0 0 1022.3 1020.9 0.0
30/03:30am 7.7 5.9 1.5 65 2.6 CALM 0 0 0 0 1022.4 - 0.0
30/03:00am 7.8 6.1 1.6 65 2.6 CALM 0 0 0 0 1022.3 1020.9 0.0
30/02:30am 9.2 7.5 2.1 61 3.1 CALM 0 0 0 0 1022.5 - 0.0
30/02:00am 9.5 7.8 1.9 59 3.3 CALM 0 0 0 0 1022.7 1021.3 0.0
30/01:30am 9.6 6.8 1.8 58 3.4 NNE 6 11 3 6 1022.9 - 0.0
30/01:00am 11.1 7.8 2.4 55 3.9 ESE 9 13 5 7 1022.9 1021.5 0.0
30/12:30am 10.5 8.9 2.6 58 3.5 CALM 0 0 0 0 1022.6 - 0.0
30/12:00am 10.4 8.8 2.3 57 3.6 CALM 0 0 0 0 1022.6 1021.2 0.0
 
Date/Time
WST
Temp
°C
App
Temp
°C
Dew
Point
Rel
Hum
%
Delta-T
°C
Wind Press
QNH
hPa
Press
MSL
hPa
Rain
since 9 am
mm
Dir
 
Spd
km/h
Gust
km/h
Spd
kts
Gust
kts
29/11:30pm 10.8 9.2 2.4 56 3.8 CALM 0 0 0 0 1022.9 - 0.0
29/11:00pm 11.9 10.3 2.6 53 4.2 CALM 0 0 0 0 1023.1 1021.7 0.0
29/10:30pm 12.5 10.9 2.7 51 4.5 CALM 0 0 0 0 1023.2 - 0.0
29/10:00pm 12.5 9.8 2.7 51 4.5 ESE 6 7 3 4 1023.2 1021.8 0.0
29/09:30pm 13.4 11.1 2.6 48 5.0 ESE 4 7 2 4 1023.1 - 0.0
29/09:00pm 14.6 12.6 2.2 43 5.7 ESE 2 6 1 3 1023.1 1021.7 0.0
29/08:30pm 16.8 13.5 2.4 38 6.8 ESE 9 11 5 6 1023.0 - 0.0
29/08:00pm 17.0 13.7 2.2 37 6.9 E 9 11 5 6 1022.9 1021.5 0.0
29/07:30pm 17.9 14.2 2.2 35 7.4 E 11 13 6 7 1022.6 - 0.0
29/07:00pm 19.2 15.1 2.1 32 8.1 E 13 15 7 8 1022.4 1021.0 0.0
29/06:30pm 20.4 16.7 2.3 30 8.7 NE 11 13 6 7 1022.3 - 0.0
29/06:00pm 21.6 18.2 1.8 27 9.5 NE 9 11 5 6 1022.1 1020.7 0.0
29/05:30pm 23.8 21.4 2.0 24 10.7 N 4 7 2 4 1021.8 - 0.0
29/05:00pm 24.8 22.3 1.7 22 11.3 N 4 11 2 6 1021.7 1020.3 0.0
29/04:30pm 25.2 20.9 1.3 21 11.7 NNW 13 19 7 10 1021.7 - 0.0
29/04:00pm 25.1 21.6 1.3 21 11.6 NNE 9 15 5 8 1021.4 1019.9 0.0

Other Formats:

Comma delimited format used in spreadsheet applications
http://www.bom.gov.au/fwo/IDW60801/IDW60801.99312.axf

JavaScript Object Notation format (JSON) in row-major order
http://www.bom.gov.au/fwo/IDW60801/IDW60801.99312.json